Time;durP1;ratioP1;P1;durP2;ratioP2;P2;SDS_P1;SDS_P2;PMS_P1;PMS_P2;Temp;Humidity;BMP_temperature;BMP_pressure;BME280_temperature;BME280_humidity;BME280_pressure;Samples;Min_cycle;Max_cycle;Signal;HPM_P1;HPM_P2
2023/04/22 00:01:09;;;;;;;7.72;4.90;;;;;;;14.17;47.98;101146.06;7389368;19;20093;-65
2023/04/22 00:03:37;;;;;;;9.57;4.97;;;;;;;14.16;47.80;101144.38;7388654;19;20014;-64
2023/04/22 00:06:05;;;;;;;8.00;4.90;;;;;;;14.18;47.84;101145.06;7388893;19;20018;-63
2023/04/22 00:08:32;;;;;;;9.00;5.18;;;;;;;14.16;47.79;101141.72;7389022;19;20364;-61
2023/04/22 00:10:59;;;;;;;12.27;4.97;;;;;;;14.09;48.07;101138.69;7389954;19;20015;-62
2023/04/22 00:13:26;;;;;;;11.75;5.35;;;;;;;14.10;48.13;101132.41;7387972;19;20039;-63
2023/04/22 00:15:53;;;;;;;9.68;4.95;;;;;;;14.05;48.16;101123.09;7387193;19;20018;-63
2023/04/22 00:18:20;;;;;;;9.40;5.10;;;;;;;14.04;48.06;101124.06;7389537;19;20026;-62
2023/04/22 00:20:47;;;;;;;10.38;5.18;;;;;;;13.97;48.31;101129.06;7389553;19;20043;-66
2023/04/22 00:23:14;;;;;;;9.90;5.70;;;;;;;13.96;48.34;101130.00;7388814;19;20098;-63
2023/04/22 00:25:41;;;;;;;8.63;4.75;;;;;;;13.94;48.48;101123.97;7388764;19;20078;-63
2023/04/22 00:28:08;;;;;;;10.10;5.50;;;;;;;13.92;48.39;101117.91;7389478;19;20022;-66
2023/04/22 00:30:35;;;;;;;9.20;4.78;;;;;;;13.97;48.21;101110.41;7389063;19;20022;-66
2023/04/22 00:33:02;;;;;;;8.25;5.20;;;;;;;13.99;48.31;101110.28;7389151;19;20025;-64
2023/04/22 00:35:29;;;;;;;8.82;5.13;;;;;;;13.92;48.32;101103.78;7388551;19;20049;-66
2023/04/22 00:37:57;;;;;;;10.73;5.40;;;;;;;13.94;48.22;101096.50;7394169;19;20019;-67
2023/04/22 00:40:24;;;;;;;11.30;5.80;;;;;;;13.87;48.49;101091.69;7395438;19;20010;-67
2023/04/22 00:42:51;;;;;;;10.35;5.40;;;;;;;13.94;48.38;101091.19;7395642;19;20035;-67
2023/04/22 00:45:19;;;;;;;8.35;5.47;;;;;;;13.96;48.47;101091.88;7395507;19;20551;-67
2023/04/22 00:47:47;;;;;;;9.25;5.30;;;;;;;13.89;48.45;101087.09;7393334;19;20488;-67
2023/04/22 00:50:15;;;;;;;9.77;5.63;;;;;;;13.89;48.34;101100.41;7395135;19;20503;-68
2023/04/22 00:52:42;;;;;;;11.75;5.88;;;;;;;13.89;48.39;101086.25;7395124;19;20018;-67
2023/04/22 00:55:10;;;;;;;12.55;5.80;;;;;;;13.88;48.30;101087.19;7393565;19;20015;-67
2023/04/22 00:57:38;;;;;;;13.05;5.50;;;;;;;13.83;48.60;101082.25;7394009;19;20100;-67
2023/04/22 01:00:06;;;;;;;9.90;5.35;;;;;;;13.79;48.54;101083.47;7394729;19;20030;-67
2023/04/22 01:02:33;;;;;;;10.07;5.60;;;;;;;13.73;48.83;101081.31;7396250;19;20470;-69
2023/04/22 01:05:02;;;;;;;10.57;5.70;;;;;;;13.72;48.86;101078.78;7392349;19;20021;-68
2023/04/22 01:07:29;;;;;;;10.95;5.43;;;;;;;13.70;48.58;101084.25;7393357;19;20014;-65
2023/04/22 01:09:56;;;;;;;10.85;5.93;;;;;;;13.74;49.02;101080.38;7394346;19;20033;-66
2023/04/22 01:12:23;;;;;;;11.40;5.35;;;;;;;13.69;48.75;101079.03;7395522;19;20038;-63
2023/04/22 01:14:50;;;;;;;11.93;5.43;;;;;;;13.70;49.04;101073.59;7394303;19;20563;-65
2023/04/22 01:17:18;;;;;;;9.07;5.65;;;;;;;13.71;48.66;101091.25;7393591;19;20459;-65
2023/04/22 01:19:46;;;;;;;9.60;5.70;;;;;;;13.65;49.01;101078.44;7394201;19;20021;-66
2023/04/22 01:22:13;;;;;;;9.13;5.63;;;;;;;13.65;48.99;101073.94;7392956;19;20015;-59
2023/04/22 01:24:40;;;;;;;9.43;5.50;;;;;;;13.64;49.14;101076.75;7391896;19;20026;-59
2023/04/22 01:27:08;;;;;;;11.38;6.15;;;;;;;13.61;49.24;101077.00;7389887;19;20502;-59
2023/04/22 01:29:37;;;;;;;10.13;5.70;;;;;;;13.63;49.24;101081.22;7394680;19;20035;-59
2023/04/22 01:32:05;;;;;;;13.55;6.50;;;;;;;13.62;49.38;101076.00;7392450;19;20038;-59
2023/04/22 01:34:32;;;;;;;10.20;5.50;;;;;;;13.57;49.27;101071.06;7393718;19;20018;-58
2023/04/22 01:36:59;;;;;;;8.43;5.13;;;;;;;13.56;49.64;101068.56;7393828;19;20025;-61
2023/04/22 01:39:28;;;;;;;11.63;6.28;;;;;;;13.50;49.64;101066.38;7394131;19;20026;-65
2023/04/22 01:41:57;;;;;;;10.35;6.20;;;;;;;13.46;49.86;101075.56;7395007;19;20023;-63
2023/04/22 01:44:25;;;;;;;13.23;5.95;;;;;;;13.30;50.50;101078.63;7392337;19;20015;-64
2023/04/22 01:46:52;;;;;;;13.20;5.95;;;;;;;13.17;50.86;101073.41;7392978;19;20035;-66
2023/04/22 01:49:20;;;;;;;9.82;6.00;;;;;;;13.05;51.35;101072.59;7390703;19;20043;-66
2023/04/22 01:51:47;;;;;;;9.50;5.95;;;;;;;12.98;51.98;101073.19;7394437;19;20048;-61
2023/04/22 01:54:14;;;;;;;9.93;6.22;;;;;;;12.98;51.87;101081.16;7391900;19;20104;-64
2023/04/22 01:56:47;;;;;;;10.13;6.03;;;;;;;12.90;52.42;101077.28;7392395;19;20022;-64
2023/04/22 01:59:14;;;;;;;9.77;5.80;;;;;;;12.91;52.76;101071.00;7393010;19;20014;-60
2023/04/22 02:01:41;;;;;;;10.60;6.13;;;;;;;12.78;53.31;101080.91;7392592;19;20279;-60
2023/04/22 02:04:08;;;;;;;10.30;5.72;;;;;;;12.71;53.83;101071.72;7392615;19;20010;-62
2023/04/22 02:06:35;;;;;;;9.90;5.65;;;;;;;12.87;53.09;101072.19;7393163;19;20018;-59
2023/04/22 02:09:02;;;;;;;10.35;6.00;;;;;;;12.97;52.66;101074.13;7392331;19;20019;-59
2023/04/22 02:11:29;;;;;;;11.48;5.85;;;;;;;13.02;52.30;101070.16;7393475;19;20031;-60
2023/04/22 02:13:56;;;;;;;9.80;5.70;;;;;;;13.00;52.20;101068.56;7393814;19;20024;-60
2023/04/22 02:16:23;;;;;;;9.80;6.10;;;;;;;12.84;52.82;101063.63;7392056;19;20015;-59
2023/04/22 02:18:50;;;;;;;10.02;6.47;;;;;;;12.70;53.47;101067.34;7393263;19;20018;-60
2023/04/22 02:21:17;;;;;;;11.65;6.30;;;;;;;12.58;54.34;101068.31;7392230;19;20019;-59
2023/04/22 02:23:44;;;;;;;12.05;6.22;;;;;;;12.63;53.52;101068.78;7392731;19;20035;-59
2023/04/22 02:26:11;;;;;;;11.27;6.45;;;;;;;12.35;54.83;101065.59;7392280;19;20015;-59
2023/04/22 02:28:38;;;;;;;13.23;6.22;;;;;;;12.33;54.96;101064.03;7392459;19;20039;-59
2023/04/22 02:31:05;;;;;;;10.63;6.13;;;;;;;12.29;55.06;101063.41;7391689;19;20234;-59
2023/04/22 02:33:32;;;;;;;11.30;6.65;;;;;;;12.18;55.94;101058.91;7393268;19;20022;-58
2023/04/22 02:35:59;;;;;;;11.20;6.65;;;;;;;12.24;55.70;101062.91;7391657;19;20011;-60
2023/04/22 02:38:26;;;;;;;9.25;5.97;;;;;;;12.49;54.46;101058.41;7392262;19;20023;-59
2023/04/22 02:40:53;;;;;;;13.75;6.68;;;;;;;12.20;55.48;101054.31;7390382;19;20025;-59
2023/04/22 02:43:20;;;;;;;11.65;6.40;;;;;;;12.04;56.26;101045.81;7390812;19;20074;-59
2023/04/22 02:45:47;;;;;;;10.30;6.90;;;;;;;11.97;56.23;101046.41;7391566;19;20042;-58
2023/04/22 02:48:14;;;;;;;10.48;6.80;;;;;;;11.94;56.72;101045.69;7390884;19;20018;-60
2023/04/22 02:50:41;;;;;;;12.85;6.90;;;;;;;11.89;56.96;101045.16;7391664;19;20019;-60
2023/04/22 02:53:08;;;;;;;13.30;6.47;;;;;;;11.88;57.07;101047.94;7392110;19;20092;-59
2023/04/22 02:55:35;;;;;;;11.10;6.45;;;;;;;12.01;56.93;101042.56;7389554;19;20014;-59
2023/04/22 02:58:02;;;;;;;10.77;6.63;;;;;;;12.08;56.52;101036.66;7391962;19;20090;-59
2023/04/22 03:00:29;;;;;;;10.07;6.50;;;;;;;12.04;56.63;101037.03;7390211;19;20017;-58
2023/04/22 03:02:56;;;;;;;11.63;6.53;;;;;;;12.11;55.98;101031.13;7390484;19;20018;-59
2023/04/22 03:05:23;;;;;;;9.88;6.40;;;;;;;12.16;55.76;101030.78;7390103;19;20014;-59
2023/04/22 03:07:50;;;;;;;12.45;6.50;;;;;;;12.13;55.66;101031.00;7390256;19;20046;-60
2023/04/22 03:10:17;;;;;;;11.93;6.78;;;;;;;12.18;55.81;101024.41;7389252;19;20483;-58
2023/04/22 03:12:44;;;;;;;12.68;6.85;;;;;;;12.29;55.12;101025.41;7392294;19;20039;-59
2023/04/22 03:15:11;;;;;;;10.55;6.72;;;;;;;12.39;54.76;101024.56;7389647;19;20421;-59
2023/04/22 03:17:38;;;;;;;12.02;7.15;;;;;;;12.42;54.53;101029.63;7389790;19;20011;-62
2023/04/22 03:20:05;;;;;;;12.35;7.50;;;;;;;12.50;54.36;101020.22;7391039;19;20015;-62
2023/04/22 03:22:32;;;;;;;13.00;7.00;;;;;;;12.62;54.10;101021.94;7391270;19;20026;-62
2023/04/22 03:25:00;;;;;;;12.07;7.13;;;;;;;12.76;53.41;101019.03;7389968;19;20382;-62
2023/04/22 03:27:27;;;;;;;12.00;7.43;;;;;;;12.84;52.92;101015.78;7389284;19;20508;-59
2023/04/22 03:29:53;;;;;;;10.30;7.05;;;;;;;12.93;52.79;101020.34;7388865;19;20431;-59
2023/04/22 03:32:20;;;;;;;9.85;6.95;;;;;;;12.89;52.82;101003.81;7391338;19;20022;-59
2023/04/22 03:34:47;;;;;;;15.50;7.45;;;;;;;12.95;52.90;101012.28;7390484;19;20019;-60
2023/04/22 03:37:15;;;;;;;12.02;7.15;;;;;;;12.95;52.72;101006.97;7387770;19;20027;-58
2023/04/22 03:39:41;;;;;;;11.30;6.97;;;;;;;12.95;52.49;100998.97;7390408;19;20014;-58
2023/04/22 03:42:09;;;;;;;10.23;6.45;;;;;;;13.01;52.41;101003.78;7390706;19;20078;-58
2023/04/22 03:44:36;;;;;;;10.20;6.90;;;;;;;12.99;52.43;101011.91;7389200;19;20015;-59
2023/04/22 03:47:03;;;;;;;12.43;7.25;;;;;;;12.94;52.53;101008.78;7388947;19;20023;-58
2023/04/22 03:49:31;;;;;;;13.63;7.35;;;;;;;13.00;52.41;101010.09;7388680;19;20043;-58
2023/04/22 03:51:58;;;;;;;11.80;7.45;;;;;;;13.05;52.33;101002.56;7389942;19;20495;-58
2023/04/22 03:54:26;;;;;;;13.95;7.50;;;;;;;13.10;52.20;101011.91;7390468;19;20035;-58
2023/04/22 03:56:53;;;;;;;11.43;7.35;;;;;;;13.06;52.50;101021.09;7388661;19;20040;-59
2023/04/22 03:59:20;;;;;;;12.15;7.15;;;;;;;13.12;52.16;101004.63;7389589;19;20039;-59
2023/04/22 04:01:49;;;;;;;11.93;7.55;;;;;;;13.17;52.24;101002.47;7390013;19;20011;-61
2023/04/22 04:04:16;;;;;;;14.45;8.27;;;;;;;13.23;51.86;101006.47;7389256;19;20024;-60
2023/04/22 04:06:44;;;;;;;11.65;7.40;;;;;;;13.24;51.87;101002.84;7388697;19;20043;-61
2023/04/22 04:09:11;;;;;;;11.85;7.40;;;;;;;13.24;51.79;101000.19;7389779;19;20015;-61
2023/04/22 04:11:38;;;;;;;11.35;7.10;;;;;;;13.25;51.95;100988.56;7391561;19;20022;-60
2023/04/22 04:14:05;;;;;;;14.85;8.10;;;;;;;13.25;51.78;100990.38;7398013;19;20025;-59
2023/04/22 04:16:32;;;;;;;11.07;7.03;;;;;;;13.26;51.81;100986.75;7395272;19;20032;-60
2023/04/22 04:18:59;;;;;;;13.43;7.60;;;;;;;13.18;51.99;100988.19;7397515;19;20043;-60
2023/04/22 04:21:28;;;;;;;12.43;7.28;;;;;;;13.18;52.27;100985.53;7397600;19;20054;-60
2023/04/22 04:23:55;;;;;;;11.60;7.40;;;;;;;13.22;52.17;100990.59;7397067;19;20573;-60
2023/04/22 04:26:22;;;;;;;12.82;7.22;;;;;;;13.25;51.93;100985.91;7396104;19;20029;-60
2023/04/22 04:28:49;;;;;;;14.00;7.90;;;;;;;13.18;52.16;100993.50;7394856;19;20018;-60
2023/04/22 04:31:16;;;;;;;12.18;7.22;;;;;;;13.16;52.28;100990.13;7397053;19;20011;-60
2023/04/22 04:33:43;;;;;;;12.73;7.97;;;;;;;13.14;52.18;100983.25;7396630;19;20019;-60
2023/04/22 04:36:10;;;;;;;11.80;7.70;;;;;;;13.12;52.41;100972.72;7396142;19;20018;-61
2023/04/22 04:38:38;;;;;;;12.48;7.82;;;;;;;13.14;51.92;100968.13;7395548;19;20095;-60
2023/04/22 04:41:07;;;;;;;12.13;7.63;;;;;;;13.18;52.17;100974.88;7395291;19;20024;-61
2023/04/22 04:43:34;;;;;;;11.60;7.03;;;;;;;13.14;52.14;100972.59;7396702;19;20022;-60
2023/04/22 04:46:01;;;;;;;14.85;8.23;;;;;;;13.09;52.31;100980.13;7393651;19;20038;-61
2023/04/22 04:48:28;;;;;;;12.73;7.15;;;;;;;13.10;52.26;100981.81;7396015;19;20018;-61
2023/04/22 04:50:57;;;;;;;12.90;7.65;;;;;;;13.04;52.72;100974.31;7396681;19;20014;-61
2023/04/22 04:53:24;;;;;;;12.27;7.72;;;;;;;13.14;52.34;100973.44;7395900;19;20018;-61
2023/04/22 04:55:51;;;;;;;13.18;7.97;;;;;;;13.11;52.48;100970.19;7395008;19;20397;-61
2023/04/22 04:58:18;;;;;;;16.85;7.78;;;;;;;13.15;52.64;100972.47;7396313;19;20054;-60
2023/04/22 05:00:45;;;;;;;13.23;8.27;;;;;;;13.20;52.61;100960.63;7393527;19;20014;-61
2023/04/22 05:03:12;;;;;;;13.70;8.50;;;;;;;13.23;52.33;100963.03;7395521;19;20022;-59
2023/04/22 05:05:40;;;;;;;13.10;7.65;;;;;;;13.21;52.73;100967.66;7393440;19;20014;-59
2023/04/22 05:08:07;;;;;;;11.20;7.80;;;;;;;13.29;52.53;100957.25;7395662;19;20022;-60
2023/04/22 05:10:34;;;;;;;16.77;8.43;;;;;;;13.33;52.23;100962.19;7394077;19;20077;-59
2023/04/22 05:13:00;;;;;;;12.05;7.82;;;;;;;13.37;51.92;100960.97;7395082;19;20018;-59
2023/04/22 05:15:30;;;;;;;16.15;7.47;;;;;;;13.38;52.14;100962.66;7395063;19;20090;-59
2023/04/22 05:17:57;;;;;;;12.68;7.63;;;;;;;13.39;52.30;100953.72;7395374;19;20022;-58
2023/04/22 05:20:24;;;;;;;15.07;7.80;;;;;;;13.37;52.20;100945.00;7394698;19;20023;-58
2023/04/22 05:22:51;;;;;;;11.38;7.22;;;;;;;13.42;52.37;100952.59;7394350;19;20680;-58
2023/04/22 05:25:18;;;;;;;11.38;7.85;;;;;;;13.45;52.22;100951.50;7393056;19;20090;-58
2023/04/22 05:27:45;;;;;;;13.27;7.50;;;;;;;13.53;52.15;100959.69;7392399;19;20507;-58
2023/04/22 05:30:12;;;;;;;11.52;7.68;;;;;;;13.55;51.69;100963.09;7394578;19;20018;-58
2023/04/22 05:32:39;;;;;;;11.43;7.18;;;;;;;13.60;51.78;100953.75;7394086;19;20038;-59
2023/04/22 05:35:08;;;;;;;13.32;7.85;;;;;;;13.67;51.75;100962.06;7394581;19;20022;-59
2023/04/22 05:37:36;;;;;;;11.98;7.65;;;;;;;13.65;52.04;100964.00;7392502;19;20483;-59
2023/04/22 05:40:03;;;;;;;13.45;8.20;;;;;;;13.72;51.61;100951.03;7394758;19;20018;-60
2023/04/22 05:42:30;;;;;;;14.15;8.00;;;;;;;13.82;51.57;100952.78;7392882;19;20735;-60
2023/04/22 05:44:57;;;;;;;14.32;8.20;;;;;;;13.84;51.35;100960.63;7391455;19;20018;-59
2023/04/22 05:47:24;;;;;;;15.00;7.35;;;;;;;13.83;51.70;100957.13;7393204;19;20081;-59
2023/04/22 05:49:51;;;;;;;13.23;8.02;;;;;;;13.87;51.75;100963.88;7393885;19;20046;-59
2023/04/22 05:52:18;;;;;;;11.82;7.53;;;;;;;13.94;51.80;100968.72;7393948;19;20499;-58
2023/04/22 05:54:45;;;;;;;16.08;7.40;;;;;;;13.88;51.67;100972.72;7393029;19;20014;-59
2023/04/22 05:57:11;;;;;;;13.07;7.85;;;;;;;13.93;51.62;100967.00;7391933;19;20551;-59
2023/04/22 05:59:38;;;;;;;13.25;7.75;;;;;;;13.97;51.67;100963.97;7393173;19;20010;-59
2023/04/22 06:02:06;;;;;;;12.48;8.10;;;;;;;14.02;51.38;100968.91;7392764;19;20014;-59
2023/04/22 06:04:33;;;;;;;13.68;8.07;;;;;;;14.09;51.18;100960.25;7392902;19;20010;-59
2023/04/22 06:07:03;;;;;;;12.98;8.02;;;;;;;14.25;51.07;100959.78;7392297;19;20026;-59
2023/04/22 06:09:30;;;;;;;13.95;8.13;;;;;;;14.34;51.00;100960.81;7391166;19;20011;-60
2023/04/22 06:11:57;;;;;;;11.93;7.78;;;;;;;14.40;51.11;100957.63;7393123;19;20101;-60
2023/04/22 06:14:24;;;;;;;12.10;7.93;;;;;;;14.37;50.93;100964.06;7392761;19;20035;-60
2023/04/22 06:16:52;;;;;;;10.82;7.65;;;;;;;14.43;51.02;100964.53;7391812;19;20018;-60
2023/04/22 06:19:20;;;;;;;14.20;7.95;;;;;;;14.52;51.09;100963.75;7392760;19;20022;-60
2023/04/22 06:21:46;;;;;;;11.25;7.78;;;;;;;14.53;51.04;100960.94;7391928;19;20014;-60
2023/04/22 06:24:14;;;;;;;13.75;8.15;;;;;;;14.56;50.69;100970.50;7392860;19;20021;-60
2023/04/22 06:26:40;;;;;;;13.40;8.02;;;;;;;14.54;51.07;100967.97;7390529;19;20015;-59
2023/04/22 06:29:07;;;;;;;13.48;7.90;;;;;;;14.53;50.96;100966.25;7393124;19;20350;-59
2023/04/22 06:31:34;;;;;;;12.35;7.85;;;;;;;14.44;51.27;100963.53;7392926;19;20047;-59
2023/04/22 06:34:02;;;;;;;13.57;8.18;;;;;;;14.43;51.50;100953.88;7391261;19;20363;-59
2023/04/22 06:36:29;;;;;;;13.55;7.63;;;;;;;14.39;51.61;100956.78;7389571;19;20517;-60
2023/04/22 06:38:56;;;;;;;12.98;8.07;;;;;;;14.47;51.58;100958.78;7391851;19;20018;-60
2023/04/22 06:41:23;;;;;;;11.75;7.47;;;;;;;14.44;51.73;100958.22;7392965;19;20090;-60
2023/04/22 06:43:50;;;;;;;13.00;8.10;;;;;;;14.42;52.02;100968.97;7391733;19;20538;-60
2023/04/22 06:46:17;;;;;;;11.68;7.40;;;;;;;14.45;52.19;100954.56;7389147;19;20090;-60
2023/04/22 06:48:44;;;;;;;12.25;7.80;;;;;;;14.52;52.08;100966.41;7391930;19;20021;-62
2023/04/22 06:51:11;;;;;;;11.95;7.90;;;;;;;14.48;52.52;100957.81;7391642;19;20039;-61
2023/04/22 06:53:38;;;;;;;14.32;8.00;;;;;;;14.46;52.51;100964.22;7392080;19;20081;-62
2023/04/22 06:56:05;;;;;;;11.63;7.93;;;;;;;14.51;52.15;100960.25;7390703;19;20483;-63
2023/04/22 06:58:32;;;;;;;10.38;7.57;;;;;;;14.53;52.02;100954.75;7391820;19;20018;-63
2023/04/22 07:00:59;;;;;;;13.55;7.70;;;;;;;14.47;52.25;100958.78;7392109;19;20408;-62
2023/04/22 07:03:26;;;;;;;13.30;7.25;;;;;;;14.45;52.25;100951.91;7390686;19;20039;-62
2023/04/22 07:05:54;;;;;;;13.35;7.72;;;;;;;14.48;52.42;100948.97;7390145;19;20018;-65
2023/04/22 07:08:21;;;;;;;13.80;7.68;;;;;;;14.48;52.41;100949.81;7391453;19;20018;-63
2023/04/22 07:10:48;;;;;;;12.27;8.38;;;;;;;14.53;52.38;100944.09;7391010;19;20550;-63
2023/04/22 07:13:15;;;;;;;11.40;7.63;;;;;;;14.55;52.55;100943.00;7391721;19;20505;-63
2023/04/22 07:15:42;;;;;;;13.90;7.47;;;;;;;14.59;52.75;100932.91;7390432;19;20018;-64
2023/04/22 07:18:08;;;;;;;11.40;7.63;;;;;;;14.65;53.21;100932.34;7391167;19;20055;-62
2023/04/22 07:20:35;;;;;;;13.02;7.97;;;;;;;14.71;52.86;100929.16;7390606;19;20032;-61
2023/04/22 07:23:02;;;;;;;14.50;8.02;;;;;;;14.74;52.79;100930.72;7391065;19;20026;-62
2023/04/22 07:25:29;;;;;;;14.23;7.97;;;;;;;14.79;52.83;100925.81;7389878;19;20014;-62
2023/04/22 07:27:56;;;;;;;12.35;7.35;;;;;;;14.76;52.76;100937.59;7391185;19;20463;-62
2023/04/22 07:30:23;;;;;;;13.93;7.88;;;;;;;14.79;52.67;100942.66;7388991;19;20498;-60
2023/04/22 07:32:51;;;;;;;11.35;7.40;;;;;;;14.89;52.60;100947.19;7391370;19;20019;-60
2023/04/22 07:35:18;;;;;;;11.63;7.40;;;;;;;15.05;52.42;100947.50;7390533;19;20019;-60
2023/04/22 07:37:45;;;;;;;14.77;7.80;;;;;;;15.20;52.21;100948.78;7389468;19;20019;-60
2023/04/22 07:40:12;;;;;;;13.75;7.57;;;;;;;15.32;51.93;100947.69;7390597;19;20471;-61
2023/04/22 07:42:39;;;;;;;13.07;8.02;;;;;;;15.48;51.69;100949.78;7390798;19;20015;-61
2023/04/22 07:45:07;;;;;;;12.18;7.30;;;;;;;15.55;51.70;100944.75;7387767;19;20011;-61
2023/04/22 07:47:34;;;;;;;14.25;7.60;;;;;;;15.61;51.64;100944.19;7392654;19;20503;-61
2023/04/22 07:50:01;;;;;;;11.13;7.40;;;;;;;15.67;51.50;100951.66;7396300;19;20018;-62
2023/04/22 07:52:31;;;;;;;11.57;7.85;;;;;;;15.65;51.50;100953.63;7398160;19;20032;-62
2023/04/22 07:54:58;;;;;;;11.65;7.72;;;;;;;15.64;51.52;100957.22;7397488;19;20078;-62
2023/04/22 07:57:25;;;;;;;12.35;7.22;;;;;;;15.72;51.62;100965.44;7395583;19;20394;-62
2023/04/22 07:59:52;;;;;;;13.63;7.82;;;;;;;15.74;51.70;100962.63;7396996;19;20020;-62
2023/04/22 08:02:19;;;;;;;13.38;7.30;;;;;;;15.75;51.46;100958.94;7398122;19;20031;-63
2023/04/22 08:04:46;;;;;;;12.35;7.28;;;;;;;15.73;51.55;100945.75;7397848;19;20026;-63
2023/04/22 08:07:14;;;;;;;12.98;7.55;;;;;;;15.72;51.69;100944.09;7394523;19;20023;-62
2023/04/22 08:09:58;;;;;;;13.07;7.25;;;;;;;15.73;51.61;100948.44;7397316;19;20077;-64
2023/04/22 08:12:26;;;;;;;11.55;7.32;;;;;;;15.79;51.83;100947.00;7397059;19;20094;-62
2023/04/22 08:14:53;;;;;;;14.20;7.40;;;;;;;15.84;52.05;100942.94;7396903;19;20491;-61
2023/04/22 08:17:20;;;;;;;11.13;6.95;;;;;;;15.88;52.04;100943.50;7394644;19;20551;-59
2023/04/22 08:19:48;;;;;;;10.88;6.43;;;;;;;15.93;52.24;100940.38;7397232;19;20014;-60
2023/04/22 08:22:16;;;;;;;12.30;7.45;;;;;;;15.89;52.13;100933.66;7397225;19;20475;-60
2023/04/22 08:24:43;;;;;;;11.48;7.03;;;;;;;15.94;52.46;100936.72;7396463;19;20022;-60
2023/04/22 08:27:10;;;;;;;11.93;7.13;;;;;;;16.02;52.23;100931.50;7394194;19;20022;-60
2023/04/22 08:29:37;;;;;;;13.00;7.35;;;;;;;16.09;51.90;100929.94;7396262;19;20604;-60
2023/04/22 08:32:05;;;;;;;12.80;6.82;;;;;;;16.20;51.75;100934.28;7396669;19;20022;-59
2023/04/22 08:34:32;;;;;;;11.50;6.70;;;;;;;16.31;51.45;100936.78;7396313;19;20042;-60
2023/04/22 08:36:59;;;;;;;11.80;6.00;;;;;;;16.37;51.15;100938.00;7394540;19;20039;-60
2023/04/22 08:39:26;;;;;;;10.55;6.22;;;;;;;16.49;50.88;100939.53;7395845;19;20479;-60
2023/04/22 08:41:55;;;;;;;8.98;6.22;;;;;;;16.50;50.92;100931.34;7396421;19;20074;-61
2023/04/22 08:44:22;;;;;;;9.80;6.00;;;;;;;16.51;51.09;100924.16;7396211;19;20015;-60
2023/04/22 08:46:50;;;;;;;11.80;6.28;;;;;;;16.60;50.56;100923.31;7393469;19;20022;-59
2023/04/22 08:49:18;;;;;;;12.50;5.90;;;;;;;16.66;50.91;100921.84;7394281;19;20018;-60
2023/04/22 08:51:45;;;;;;;11.93;5.68;;;;;;;16.70;50.58;100907.19;7395670;19;20043;-61
2023/04/22 08:54:12;;;;;;;11.13;5.82;;;;;;;16.77;50.16;100901.13;7395921;19;20014;-60
2023/04/22 08:56:41;;;;;;;10.75;5.78;;;;;;;16.85;50.49;100896.88;7392323;19;20082;-60
2023/04/22 08:59:12;;;;;;;10.93;5.43;;;;;;;16.98;50.47;100890.19;7392373;19;20420;-60
2023/04/22 09:01:40;;;;;;;15.50;5.65;;;;;;;17.09;50.23;100885.56;7395151;19;20051;-61
2023/04/22 09:04:13;;;;;;;9.65;5.38;;;;;;;17.20;50.27;100885.34;7395714;19;20104;-60
2023/04/22 09:06:40;;;;;;;8.57;5.45;;;;;;;17.18;50.55;100882.84;7393208;19;20022;-60
2023/04/22 09:09:07;;;;;;;10.85;5.63;;;;;;;17.30;49.55;100884.28;7395213;19;20031;-60
2023/04/22 09:11:35;;;;;;;10.98;5.38;;;;;;;17.38;49.82;100878.16;7395377;19;20022;-61
2023/04/22 09:14:03;;;;;;;11.35;5.75;;;;;;;17.57;49.38;100879.00;7395911;19;20069;-60
2023/04/22 09:16:31;;;;;;;10.77;5.60;;;;;;;17.57;49.66;100871.78;7393707;19;20032;-61
2023/04/22 09:18:58;;;;;;;8.43;4.75;;;;;;;17.52;49.57;100872.25;7395486;19;20035;-61
2023/04/22 09:21:30;;;;;;;10.70;5.20;;;;;;;17.59;49.82;100871.63;7395319;19;20043;-60
2023/04/22 09:24:01;;;;;;;10.73;5.53;;;;;;;17.62;49.36;100871.31;7394950;19;20015;-61
2023/04/22 09:26:30;;;;;;;8.32;5.30;;;;;;;17.54;49.52;100875.59;7393199;19;20098;-62
2023/04/22 09:28:58;;;;;;;11.52;5.82;;;;;;;17.55;49.55;100876.44;7393351;19;20021;-60
2023/04/22 09:31:26;;;;;;;12.43;5.47;;;;;;;17.55;49.51;100879.13;7394491;19;20011;-61
2023/04/22 09:33:56;;;;;;;8.98;5.43;;;;;;;17.60;50.03;100878.69;7394803;19;20110;-61
2023/04/22 09:36:27;;;;;;;9.70;5.43;;;;;;;17.65;50.01;100876.38;7393577;19;20032;-60
2023/04/22 09:38:56;;;;;;;8.18;5.20;;;;;;;17.69;50.11;100875.06;7394223;19;20090;-61
2023/04/22 09:41:31;;;;;;;13.00;5.05;;;;;;;17.81;49.97;100868.47;7394963;19;20086;-61
2023/04/22 09:44:00;;;;;;;8.02;5.30;;;;;;;17.83;50.29;100873.69;7395150;19;20022;-61
2023/04/22 09:46:28;;;;;;;8.50;5.07;;;;;;;17.92;49.77;100872.72;7391232;19;20479;-62
2023/04/22 09:48:57;;;;;;;12.32;5.40;;;;;;;17.97;49.67;100873.09;7394565;19;20035;-62
2023/04/22 09:51:26;;;;;;;9.90;5.47;;;;;;;17.95;49.38;100869.75;7396087;19;20097;-59
2023/04/22 09:54:02;;;;;;;11.18;5.75;;;;;;;17.99;49.41;100863.91;7393686;19;20039;-62
2023/04/22 09:56:48;;;;;;;9.75;5.43;;;;;;;18.00;49.26;100865.56;7391234;19;20015;-62
2023/04/22 09:59:19;;;;;;;11.25;5.50;;;;;;;18.00;49.47;100859.38;7391869;19;20015;-62
2023/04/22 10:01:47;;;;;;;9.07;5.03;;;;;;;18.03;49.78;100856.38;7393594;19;20022;-62
2023/04/22 10:04:15;;;;;;;10.95;5.13;;;;;;;18.05;49.40;100862.44;7394044;19;20039;-62
2023/04/22 10:06:42;;;;;;;11.43;5.50;;;;;;;18.11;49.79;100858.28;7391956;19;20022;-62
2023/04/22 10:09:09;;;;;;;12.45;5.47;;;;;;;18.17;49.57;100858.47;7390282;19;20023;-61
2023/04/22 10:11:37;;;;;;;10.40;5.43;;;;;;;18.24;49.10;100853.31;7393357;19;20019;-61
2023/04/22 10:14:04;;;;;;;8.88;5.15;;;;;;;18.31;48.89;100859.69;7392805;19;20030;-61
2023/04/22 10:16:33;;;;;;;8.43;4.72;;;;;;;18.36;49.27;100849.34;7391692;19;20772;-62
2023/04/22 10:19:03;;;;;;;10.40;5.30;;;;;;;18.41;49.24;100841.66;7391929;19;20474;-61
2023/04/22 10:21:31;;;;;;;11.18;5.05;;;;;;;18.48;49.18;100844.53;7391980;19;20039;-60
2023/04/22 10:23:59;;;;;;;8.90;4.72;;;;;;;18.56;49.34;100841.88;7392258;19;20043;-61
2023/04/22 10:26:40;;;;;;;9.48;4.80;;;;;;;18.59;49.02;100838.88;7390922;19;20015;-60
2023/04/22 10:29:11;;;;;;;9.05;4.10;;;;;;;18.62;48.24;100835.88;7391609;19;20018;-61
2023/04/22 10:31:38;;;;;;;8.85;4.65;;;;;;;18.73;47.87;100830.22;7392921;19;20102;-61
2023/04/22 10:34:11;;;;;;;9.57;4.47;;;;;;;18.98;47.55;100828.41;7390234;19;20022;-61
2023/04/22 10:37:10;;;;;;;9.18;3.90;;;;;;;19.30;47.00;100832.09;7391325;19;20042;-61
2023/04/22 10:39:41;;;;;;;8.52;4.63;;;;;;;19.37;46.51;100827.75;7391401;19;20016;-61
2023/04/22 10:42:11;;;;;;;9.68;4.25;;;;;;;19.36;46.68;100833.31;7392125;19;20023;-62
2023/04/22 10:44:47;;;;;;;8.35;4.47;;;;;;;19.28;47.40;100836.81;7390868;19;20019;-61
2023/04/22 10:47:37;;;;;;;10.20;4.60;;;;;;;19.28;47.06;100836.00;7390549;19;20015;-61
2023/04/22 10:50:27;;;;;;;7.43;3.72;;;;;;;19.28;47.56;100822.56;7390952;19;20476;-62
2023/04/22 10:52:57;;;;;;;7.15;3.50;;;;;;;19.41;46.52;100820.19;7392041;19;20082;-61
2023/04/22 10:55:25;;;;;;;6.63;3.60;;;;;;;19.63;46.46;100802.56;7389254;19;20014;-61
2023/04/22 10:57:52;;;;;;;6.55;3.80;;;;;;;19.77;46.46;100804.56;7390176;19;20015;-62
2023/04/22 11:00:22;;;;;;;8.20;4.10;;;;;;;19.74;46.23;100798.69;7390256;19;20090;-61
2023/04/22 11:03:10;;;;;;;7.60;3.72;;;;;;;19.64;46.67;100807.75;7391544;19;20039;-61
2023/04/22 11:05:38;;;;;;;6.55;3.58;;;;;;;19.59;46.71;100795.84;7389138;19;20043;-62
2023/04/22 11:08:16;;;;;;;8.57;3.63;;;;;;;19.62;46.28;100795.53;7389558;19;20023;-62
2023/04/22 11:10:46;;;;;;;7.15;3.33;;;;;;;19.87;45.49;100791.75;7390920;19;20465;-61
2023/04/22 11:13:21;;;;;;;7.22;3.50;;;;;;;20.18;44.68;100791.84;7391647;19;20019;-62
2023/04/22 11:15:50;;;;;;;6.57;3.35;;;;;;;20.26;44.94;100784.72;7389727;19;20018;-62
2023/04/22 11:18:23;;;;;;;9.15;3.33;;;;;;;20.28;45.40;100764.72;7391465;19;20018;-64
2023/04/22 11:20:52;;;;;;;4.90;2.75;;;;;;;20.28;45.28;100763.88;7389752;19;20088;-63
2023/04/22 11:23:26;;;;;;;6.20;2.90;;;;;;;20.33;44.76;100758.78;7389240;19;20082;-62